createdAt,value
2022-12-02T00:00:00.834Z,26.20
2022-12-02T00:02:32.830Z,25.80
2022-12-02T00:05:06.297Z,27.83
2022-12-02T00:07:34.512Z,26.90
2022-12-02T00:10:02.318Z,26.20
2022-12-02T00:12:33.546Z,25.50
2022-12-02T00:15:04.018Z,25.03
2022-12-02T00:17:33.263Z,26.37
2022-12-02T00:20:01.015Z,24.53
2022-12-02T00:22:28.810Z,24.87
2022-12-02T00:24:56.659Z,25.20
2022-12-02T00:27:24.385Z,25.07
2022-12-02T00:29:52.130Z,25.07
2022-12-02T00:32:19.993Z,25.83
2022-12-02T00:34:49.328Z,25.53
2022-12-02T00:37:17.307Z,25.43
2022-12-02T00:39:45.216Z,25.83
2022-12-02T00:42:12.956Z,24.90
2022-12-02T00:44:58.138Z,25.67
2022-12-02T00:47:25.984Z,22.87
2022-12-02T00:49:55.156Z,25.53
2022-12-02T00:52:22.921Z,24.07
2022-12-02T00:54:50.999Z,24.07
2022-12-02T00:57:18.925Z,24.10
2022-12-02T00:59:46.699Z,23.73
2022-12-02T01:02:14.488Z,23.43
2022-12-02T01:04:42.242Z,24.37
2022-12-02T01:07:11.778Z,24.47
2022-12-02T01:09:39.623Z,24.23
2022-12-02T01:12:07.969Z,23.90
2022-12-02T01:14:35.878Z,24.03
2022-12-02T01:17:03.763Z,24.47
2022-12-02T01:19:31.615Z,24.30
2022-12-02T01:21:59.399Z,23.70
2022-12-02T01:24:28.623Z,24.97
2022-12-02T01:26:56.383Z,24.43
2022-12-02T01:29:24.178Z,24.97
2022-12-02T01:31:52.049Z,23.97
2022-12-02T01:34:19.882Z,24.03
2022-12-02T01:36:47.622Z,23.33
2022-12-02T01:39:15.379Z,22.93
2022-12-02T01:41:44.619Z,23.80
2022-12-02T01:44:12.518Z,23.90
2022-12-02T01:46:40.857Z,22.47
2022-12-02T01:49:08.779Z,22.90
2022-12-02T01:51:36.817Z,21.90
2022-12-02T01:54:04.927Z,23.03
2022-12-02T01:56:32.714Z,22.37
2022-12-02T01:59:02.093Z,21.17
2022-12-02T02:01:31.851Z,22.13
2022-12-02T02:04:00.363Z,22.53
2022-12-02T02:06:30.971Z,23.07
2022-12-02T02:08:59.209Z,22.73
2022-12-02T02:11:27.795Z,21.67
2022-12-02T02:13:56.504Z,22.00
2022-12-02T02:16:25.755Z,23.70
2022-12-02T02:18:53.767Z,22.50
2022-12-02T02:21:24.906Z,23.77
2022-12-02T02:23:54.286Z,22.13
2022-12-02T02:26:22.084Z,22.43
2022-12-02T02:28:49.998Z,21.73
2022-12-02T02:31:18.309Z,22.87
2022-12-02T02:33:47.328Z,22.47
2022-12-02T02:36:15.179Z,22.37
2022-12-02T02:38:43.012Z,22.97
2022-12-02T02:41:12.472Z,23.13
2022-12-02T02:43:40.706Z,22.77
2022-12-02T02:46:09.229Z,23.10
2022-12-02T02:48:37.601Z,23.90
2022-12-02T02:51:06.170Z,23.20
2022-12-02T02:53:34.021Z,24.00
2022-12-02T02:56:01.897Z,23.47
2022-12-02T02:58:35.447Z,23.33
2022-12-02T03:01:06.758Z,24.10
2022-12-02T03:03:39.179Z,24.03
2022-12-02T03:06:09.420Z,26.23
2022-12-02T03:08:40.553Z,23.73
2022-12-02T03:11:08.820Z,24.73
2022-12-02T03:13:40.080Z,23.60
2022-12-02T03:16:10.754Z,25.47
2022-12-02T03:18:40.950Z,24.80
2022-12-02T03:21:10.295Z,25.03
2022-12-02T03:23:38.435Z,24.20
2022-12-02T03:26:07.006Z,25.70
2022-12-02T03:28:35.740Z,24.90
2022-12-02T03:31:05.583Z,25.70
2022-12-02T03:33:34.748Z,24.97
2022-12-02T03:36:03.091Z,25.67
2022-12-02T03:38:34.081Z,25.03
2022-12-02T03:41:03.599Z,27.70
2022-12-02T03:43:31.778Z,25.43
2022-12-02T03:46:00.581Z,26.73
2022-12-02T03:48:30.378Z,25.93
2022-12-02T03:50:58.981Z,25.80
2022-12-02T03:53:28.988Z,26.53
2022-12-02T03:55:56.922Z,25.90
2022-12-02T03:58:34.744Z,26.80
2022-12-02T04:01:02.732Z,25.67
2022-12-02T04:03:32.128Z,26.10
2022-12-02T04:05:59.949Z,26.83
2022-12-02T04:08:28.020Z,26.40
2022-12-02T04:10:55.775Z,26.27
2022-12-02T04:13:23.538Z,26.73
2022-12-02T04:15:51.467Z,26.73
2022-12-02T04:18:19.280Z,26.47
2022-12-02T04:20:48.450Z,27.60
2022-12-02T04:23:16.214Z,26.87
2022-12-02T04:25:44.000Z,26.40
2022-12-02T04:28:11.754Z,26.33
2022-12-02T04:30:39.541Z,24.93
2022-12-02T04:33:07.308Z,26.53
2022-12-02T04:35:35.062Z,26.60
2022-12-02T04:38:10.270Z,26.90
2022-12-02T04:40:39.641Z,27.20
2022-12-02T04:43:07.435Z,26.33
2022-12-02T04:45:35.192Z,27.60
2022-12-02T04:48:03.074Z,29.63
2022-12-02T04:50:30.798Z,27.70
2022-12-02T04:52:58.519Z,28.83
2022-12-02T04:55:27.664Z,30.63
2022-12-02T04:57:55.396Z,28.13
2022-12-02T05:00:23.624Z,29.47
2022-12-02T05:02:51.430Z,30.27
2022-12-02T05:05:19.228Z,29.93
2022-12-02T05:07:47.083Z,30.30
2022-12-02T05:10:14.881Z,29.30
2022-12-02T05:12:43.991Z,30.10
2022-12-02T05:15:12.381Z,30.77
2022-12-02T05:17:42.337Z,30.13
2022-12-02T05:20:11.702Z,28.83
2022-12-02T05:22:40.165Z,29.23
2022-12-02T05:25:08.591Z,29.80
2022-12-02T05:27:36.350Z,30.50
2022-12-02T05:30:07.483Z,31.23
2022-12-02T05:32:35.591Z,31.37
2022-12-02T05:35:03.342Z,31.80
2022-12-02T05:37:31.117Z,31.27
2022-12-02T05:40:01.351Z,31.17
2022-12-02T05:42:29.627Z,31.67
2022-12-02T05:45:01.693Z,32.10
2022-12-02T05:47:31.788Z,30.43
2022-12-02T05:50:01.437Z,31.90
2022-12-02T05:52:30.638Z,31.37
2022-12-02T05:55:01.054Z,30.03
2022-12-02T05:57:31.036Z,31.87
2022-12-02T06:00:12.339Z,32.07
2022-12-02T06:02:43.916Z,31.37
2022-12-02T06:05:31.834Z,30.97
2022-12-02T06:08:09.893Z,30.37
2022-12-02T06:10:39.325Z,29.80
2022-12-02T06:13:15.462Z,31.10
2022-12-02T06:15:43.449Z,32.97
2022-12-02T06:18:15.625Z,31.70
2022-12-02T06:20:43.940Z,29.97
2022-12-02T06:23:15.198Z,31.37
2022-12-02T06:25:43.859Z,32.57
2022-12-02T06:28:22.855Z,31.00
2022-12-02T06:30:51.158Z,29.83
2022-12-02T06:33:31.305Z,32.83
2022-12-02T06:36:02.986Z,31.80
2022-12-02T06:38:32.785Z,31.20
2022-12-02T06:41:01.850Z,31.83
2022-12-02T06:43:32.038Z,30.80
2022-12-02T06:45:59.994Z,31.30
2022-12-02T06:48:32.726Z,32.70
2022-12-02T06:51:13.870Z,32.87
2022-12-02T06:53:42.871Z,32.13
2022-12-02T06:56:23.420Z,33.27
2022-12-02T06:59:00.010Z,30.47
2022-12-02T07:01:32.525Z,31.63
2022-12-02T07:04:18.779Z,30.43
2022-12-02T07:06:51.058Z,30.93
2022-12-02T07:09:24.903Z,31.00
2022-12-02T07:11:54.311Z,30.43
2022-12-02T07:14:28.365Z,30.80
2022-12-02T07:16:57.932Z,29.70
2022-12-02T07:19:36.597Z,30.53
2022-12-02T07:22:12.985Z,29.27
2022-12-02T07:24:41.997Z,31.53
2022-12-02T07:27:21.106Z,29.63
2022-12-02T07:29:50.533Z,30.90
2022-12-02T07:32:18.403Z,30.57
2022-12-02T07:34:47.894Z,28.90
2022-12-02T07:37:15.805Z,28.90
2022-12-02T07:39:43.559Z,30.03
2022-12-02T07:42:11.407Z,31.00
2022-12-02T07:44:40.948Z,30.40
2022-12-02T07:47:08.709Z,28.90
2022-12-02T07:49:36.502Z,32.40
2022-12-02T07:52:05.874Z,29.37
2022-12-02T07:54:33.659Z,31.30
2022-12-02T07:57:01.498Z,33.50
2022-12-02T07:59:29.270Z,37.97
2022-12-02T08:01:57.121Z,30.17
2022-12-02T08:04:24.911Z,32.00
2022-12-02T08:06:52.681Z,32.13
2022-12-02T08:09:21.794Z,31.73
2022-12-02T08:11:49.547Z,29.93
2022-12-02T08:14:17.305Z,29.93
2022-12-02T08:16:45.082Z,29.17
2022-12-02T08:19:13.016Z,30.73
2022-12-02T08:21:41.101Z,29.47
2022-12-02T08:24:09.085Z,30.03
2022-12-02T08:26:38.226Z,29.53
2022-12-02T08:29:06.018Z,29.40
2022-12-02T08:31:33.783Z,29.27
2022-12-02T08:34:06.768Z,28.50
2022-12-02T08:36:35.378Z,31.97
2022-12-02T08:39:05.684Z,29.27
2022-12-02T08:41:33.892Z,29.33
2022-12-02T08:44:03.054Z,29.43
2022-12-02T08:46:31.385Z,29.40
2022-12-02T08:49:00.206Z,30.47
2022-12-02T08:51:28.363Z,28.83
2022-12-02T08:53:56.154Z,29.70
2022-12-02T08:56:23.896Z,28.73
2022-12-02T08:58:52.036Z,27.67
2022-12-02T09:01:21.296Z,30.10
2022-12-02T09:03:58.456Z,30.00
2022-12-02T09:06:26.484Z,28.93
2022-12-02T09:08:54.400Z,29.87
2022-12-02T09:11:22.340Z,28.97
2022-12-02T09:13:50.144Z,30.53
2022-12-02T09:16:17.970Z,32.50
2022-12-02T09:18:47.132Z,34.13
2022-12-02T09:21:14.927Z,32.80
2022-12-02T09:23:47.376Z,46.17
2022-12-02T09:26:18.146Z,31.80
2022-12-02T09:28:46.057Z,32.80
2022-12-02T09:31:13.890Z,36.40
2022-12-02T09:33:41.767Z,47.83
2022-12-02T09:36:11.075Z,43.87
2022-12-02T09:38:38.924Z,31.33
2022-12-02T09:41:07.122Z,33.73
2022-12-02T09:43:35.129Z,30.53
2022-12-02T09:46:05.189Z,41.83
2022-12-02T09:48:33.415Z,30.03
2022-12-02T09:51:01.541Z,33.03
2022-12-02T09:53:34.119Z,34.57
2022-12-02T09:56:02.574Z,34.90
2022-12-02T09:58:30.350Z,38.23
2022-12-02T10:00:58.120Z,45.57
2022-12-02T10:03:29.246Z,34.07
2022-12-02T10:05:57.701Z,30.60
2022-12-02T10:08:28.266Z,32.33
2022-12-02T10:10:57.855Z,37.30
2022-12-02T10:13:26.595Z,42.10
2022-12-02T10:15:55.354Z,38.27
2022-12-02T10:18:26.838Z,49.17
2022-12-02T10:20:54.693Z,40.67
2022-12-02T10:23:23.817Z,38.00
2022-12-02T10:25:54.361Z,38.63
2022-12-02T10:28:27.061Z,43.23
2022-12-02T10:30:57.749Z,30.57
2022-12-02T10:33:27.878Z,43.83
2022-12-02T10:35:56.586Z,36.73
2022-12-02T10:38:33.891Z,34.13
2022-12-02T10:41:24.743Z,42.43
2022-12-02T10:44:06.867Z,34.77
2022-12-02T10:46:34.974Z,36.97
2022-12-02T10:49:28.440Z,35.20
2022-12-02T10:51:59.453Z,43.70
2022-12-02T10:54:29.813Z,38.37
2022-12-02T10:56:58.190Z,35.43
2022-12-02T10:59:27.978Z,29.27
2022-12-02T11:01:56.105Z,29.00
2022-12-02T11:04:24.019Z,35.93
2022-12-02T11:06:52.058Z,33.03
2022-12-02T11:12:33.750Z,32.03
2022-12-02T11:15:06.114Z,30.37
2022-12-02T11:17:51.443Z,27.47
2022-12-02T11:20:41.467Z,27.33
2022-12-02T11:23:27.158Z,25.97
2022-12-02T11:26:13.161Z,28.00
2022-12-02T11:29:18.992Z,27.30
2022-12-02T11:32:05.625Z,27.80
2022-12-02T11:35:15.750Z,24.53
2022-12-02T11:37:42.495Z,25.37
2022-12-02T11:40:58.050Z,25.63
2022-12-02T11:44:10.345Z,25.10
2022-12-02T11:46:44.190Z,25.47
2022-12-02T11:49:30.078Z,24.37
2022-12-02T11:52:17.891Z,33.70
2022-12-02T11:54:49.579Z,31.37
2022-12-02T11:57:21.472Z,26.80
2022-12-02T11:59:49.726Z,27.00
2022-12-02T12:02:19.133Z,33.30
2022-12-02T12:05:00.285Z,28.80
2022-12-02T12:07:44.962Z,31.07
2022-12-02T12:10:31.178Z,29.70
2022-12-02T12:13:22.255Z,25.40
2022-12-02T12:15:56.510Z,24.43
2022-12-02T12:18:57.949Z,25.67
2022-12-02T12:21:47.894Z,25.70
2022-12-02T12:24:30.512Z,28.67
2022-12-02T12:26:59.778Z,30.87
2022-12-02T12:29:32.472Z,25.90
2022-12-02T12:32:00.396Z,22.93
2022-12-02T12:34:28.443Z,29.17
2022-12-02T12:36:58.096Z,24.47
2022-12-02T12:39:26.073Z,28.30
2022-12-02T12:42:02.065Z,27.57
2022-12-02T12:44:32.232Z,26.17
2022-12-02T12:47:00.969Z,24.40
2022-12-02T12:49:29.078Z,28.57
2022-12-02T12:51:58.385Z,30.40
2022-12-02T12:54:26.130Z,24.57
2022-12-02T12:56:53.922Z,22.57
2022-12-02T12:59:21.642Z,23.70
2022-12-02T13:01:49.547Z,23.97
2022-12-02T13:04:17.551Z,23.27
2022-12-02T13:06:46.905Z,23.90
2022-12-02T13:09:16.906Z,24.73
2022-12-02T13:11:44.766Z,23.67
2022-12-02T13:14:12.655Z,23.20
2022-12-02T13:16:40.500Z,23.87
2022-12-02T13:19:08.279Z,22.43
2022-12-02T13:21:36.050Z,23.77
2022-12-02T13:24:05.470Z,24.87
2022-12-02T13:26:34.565Z,23.73
2022-12-02T13:29:02.655Z,24.47
2022-12-02T13:31:30.511Z,22.97
2022-12-02T13:33:58.412Z,22.97
2022-12-02T13:36:26.357Z,20.37
2022-12-02T13:38:54.287Z,21.63
2022-12-02T13:41:22.105Z,19.47
2022-12-02T13:43:51.342Z,19.80
2022-12-02T13:46:19.138Z,20.27
2022-12-02T13:48:47.050Z,21.23
2022-12-02T13:51:14.847Z,20.07
2022-12-02T13:53:43.552Z,20.90
2022-12-02T13:56:11.333Z,20.37
2022-12-02T13:58:39.118Z,24.23
2022-12-02T14:01:08.429Z,20.97
2022-12-02T14:03:36.362Z,20.87
2022-12-02T14:06:04.198Z,24.43
2022-12-02T14:08:31.953Z,22.37
2022-12-02T14:10:59.686Z,21.37
2022-12-02T14:13:27.679Z,22.70
2022-12-02T14:15:55.467Z,23.23
2022-12-02T14:18:24.610Z,27.00
2022-12-02T14:20:53.526Z,22.33
2022-12-02T14:23:22.034Z,26.03
2022-12-02T14:25:49.797Z,26.73
2022-12-02T14:28:17.635Z,25.63
2022-12-02T14:30:45.453Z,24.80
2022-12-02T14:33:13.600Z,24.80
2022-12-02T14:35:43.371Z,25.47
2022-12-02T14:38:11.181Z,24.23
2022-12-02T14:40:38.914Z,28.70
2022-12-02T14:43:12.760Z,30.30
2022-12-02T14:45:42.100Z,27.57
2022-12-02T14:48:09.913Z,25.73
2022-12-02T14:50:37.756Z,25.80
2022-12-02T14:53:06.976Z,28.57
2022-12-02T14:55:34.724Z,36.33
2022-12-02T14:58:02.835Z,34.23
2022-12-02T15:00:30.586Z,28.80
2022-12-02T15:02:59.104Z,24.47
2022-12-02T15:05:27.175Z,23.27
2022-12-02T15:07:55.363Z,25.87
2022-12-02T15:10:25.086Z,27.47
2022-12-02T15:12:53.345Z,27.67
2022-12-02T15:15:38.868Z,28.20
2022-12-02T15:18:08.317Z,30.20
2022-12-02T15:20:36.615Z,28.67
2022-12-02T15:23:04.899Z,24.53
2022-12-02T15:25:34.537Z,25.33
2022-12-02T15:28:02.805Z,25.87
2022-12-02T15:30:31.010Z,25.50
2022-12-02T15:32:59.123Z,25.60
2022-12-02T15:35:27.423Z,24.23
2022-12-02T15:37:55.513Z,25.93
2022-12-02T15:40:23.756Z,24.80
2022-12-02T15:42:53.345Z,25.37
2022-12-02T15:45:21.231Z,25.67
2022-12-02T15:47:49.329Z,25.50
2022-12-02T15:50:17.660Z,26.90
2022-12-02T15:52:45.690Z,28.33
2022-12-02T15:55:14.106Z,26.53
2022-12-02T15:57:42.292Z,26.37
2022-12-02T16:00:12.856Z,27.77
2022-12-02T16:02:41.182Z,26.70
2022-12-02T16:05:09.737Z,28.33
2022-12-02T16:07:38.072Z,26.87
2022-12-02T16:10:06.877Z,25.97
2022-12-02T16:12:35.079Z,23.90
2022-12-02T16:15:03.384Z,25.37
2022-12-02T16:17:33.189Z,26.27
2022-12-02T16:20:01.478Z,25.87
2022-12-02T16:22:29.348Z,23.57
2022-12-02T16:24:57.565Z,25.63
2022-12-02T16:27:25.699Z,27.53
2022-12-02T16:29:53.868Z,27.17
2022-12-02T16:32:21.944Z,24.73
2022-12-02T16:34:51.875Z,24.67
2022-12-02T16:37:21.859Z,22.73
2022-12-02T16:39:50.284Z,23.03
2022-12-02T16:42:18.742Z,35.60
2022-12-02T16:44:49.288Z,45.53
2022-12-02T16:47:20.058Z,35.50
2022-12-02T16:49:49.097Z,28.73
2022-12-02T16:52:18.542Z,25.80
2022-12-02T16:54:46.652Z,24.40
2022-12-02T16:57:14.948Z,23.67
2022-12-02T16:59:42.886Z,23.80
2022-12-02T17:02:11.616Z,24.63
2022-12-02T17:04:39.730Z,21.50
2022-12-02T17:07:07.786Z,22.97
2022-12-02T17:09:37.109Z,21.27
2022-12-02T17:12:05.628Z,21.33
2022-12-02T17:14:33.874Z,21.17
2022-12-02T17:17:13.258Z,21.77
2022-12-02T17:19:49.419Z,25.97
2022-12-02T17:22:17.194Z,32.07
2022-12-02T17:24:46.294Z,26.07
2022-12-02T17:27:14.082Z,32.03
2022-12-02T17:29:41.815Z,38.27
2022-12-02T17:32:09.637Z,24.63
2022-12-02T17:34:37.418Z,25.00
2022-12-02T17:37:05.363Z,23.03
2022-12-02T17:39:34.430Z,22.27
2022-12-02T17:42:03.538Z,24.50
2022-12-02T17:44:31.517Z,26.93
2022-12-02T17:46:59.269Z,26.90
2022-12-02T17:49:31.064Z,30.37
2022-12-02T17:52:19.302Z,25.40
2022-12-02T17:54:48.283Z,23.00
2022-12-02T17:57:17.664Z,22.60
2022-12-02T17:59:45.404Z,21.63
2022-12-02T18:02:13.600Z,25.50
2022-12-02T18:04:43.981Z,22.40
2022-12-02T18:07:12.491Z,21.67
2022-12-02T18:09:41.116Z,24.37
2022-12-02T18:12:10.134Z,22.90
2022-12-02T18:14:39.277Z,22.27
2022-12-02T18:17:07.237Z,26.23
2022-12-02T18:19:35.242Z,42.03
2022-12-02T18:22:03.005Z,54.93
2022-12-02T18:24:30.738Z,33.17
2022-12-02T18:26:58.598Z,33.63
2022-12-02T18:29:26.358Z,45.70
2022-12-02T18:31:55.496Z,47.20
2022-12-02T18:34:23.739Z,32.30
2022-12-02T18:36:51.571Z,30.17
2022-12-02T18:39:19.331Z,33.70
2022-12-02T18:41:47.074Z,35.43
2022-12-02T18:44:14.845Z,26.97
2022-12-02T18:46:42.639Z,34.63
2022-12-02T18:49:11.869Z,43.40
2022-12-02T18:51:39.675Z,34.97
2022-12-02T18:54:08.163Z,35.97
2022-12-02T18:56:36.019Z,32.87
2022-12-02T18:59:04.594Z,32.47
2022-12-02T19:01:34.343Z,29.53
2022-12-02T19:04:02.561Z,31.57
2022-12-02T19:06:31.660Z,31.60
2022-12-02T19:08:59.520Z,32.57
2022-12-02T19:11:27.273Z,30.47
2022-12-02T19:13:55.071Z,29.77
2022-12-02T19:16:23.012Z,28.50
2022-12-02T19:18:51.447Z,33.97
2022-12-02T19:21:24.528Z,51.20
2022-12-02T19:23:54.235Z,76.00
2022-12-02T19:26:23.316Z,48.67
2022-12-02T19:28:51.591Z,63.90
2022-12-02T19:31:19.413Z,35.40
2022-12-02T19:33:47.217Z,29.47
2022-12-02T19:36:14.974Z,26.40
2022-12-02T19:38:42.874Z,23.20
2022-12-02T19:41:12.006Z,25.50
2022-12-02T19:43:39.796Z,32.33
2022-12-02T19:46:07.624Z,24.37
2022-12-02T19:48:35.451Z,22.60
2022-12-02T19:51:03.295Z,25.03
2022-12-02T19:53:31.719Z,21.63
2022-12-02T19:55:59.487Z,24.30
2022-12-02T19:58:28.636Z,24.07
2022-12-02T20:00:56.424Z,22.10
2022-12-02T20:03:24.267Z,20.70
2022-12-02T20:05:52.108Z,22.87
2022-12-02T20:08:20.004Z,23.67
2022-12-02T20:10:47.896Z,22.00
2022-12-02T20:13:17.846Z,23.07
2022-12-02T20:15:47.142Z,22.83
2022-12-02T20:18:15.256Z,22.40
2022-12-02T20:20:43.106Z,21.10
2022-12-02T20:23:11.166Z,20.33
2022-12-02T20:25:39.087Z,22.37
2022-12-02T20:28:06.872Z,19.97
2022-12-02T20:30:34.711Z,19.27
2022-12-02T20:33:03.854Z,19.20
2022-12-02T20:35:31.599Z,20.33
2022-12-02T20:38:00.817Z,21.73
2022-12-02T20:40:28.571Z,23.90
2022-12-02T20:42:56.311Z,23.83
2022-12-02T20:45:24.192Z,26.03
2022-12-02T20:47:51.983Z,21.60
2022-12-02T20:50:21.238Z,23.33
2022-12-02T20:52:53.583Z,21.17
2022-12-02T20:55:22.356Z,21.57
2022-12-02T20:57:50.187Z,24.20
2022-12-02T21:00:19.333Z,22.37
2022-12-02T21:02:47.151Z,22.50
2022-12-02T21:05:15.085Z,21.30
2022-12-02T21:07:44.275Z,21.17
2022-12-02T21:10:13.194Z,19.73
2022-12-02T21:12:40.954Z,21.37
2022-12-02T21:15:09.314Z,21.13
2022-12-02T21:17:37.407Z,22.27
2022-12-02T21:20:06.410Z,21.23
2022-12-02T21:22:34.182Z,18.87
2022-12-02T21:25:03.343Z,19.37
2022-12-02T21:27:31.086Z,19.50
2022-12-02T21:30:01.850Z,20.23
2022-12-02T21:32:29.591Z,19.63
2022-12-02T21:34:57.362Z,19.60
2022-12-02T21:37:25.233Z,20.80
2022-12-02T21:39:52.981Z,21.90
2022-12-02T21:42:22.540Z,22.23
2022-12-02T21:44:50.586Z,22.20
2022-12-02T21:47:18.477Z,21.27
2022-12-02T21:49:49.413Z,21.90
2022-12-02T21:52:17.549Z,21.93
2022-12-02T21:54:45.280Z,25.03
2022-12-02T21:57:13.071Z,23.80
2022-12-02T21:59:42.269Z,26.40
2022-12-02T22:02:13.826Z,28.20
2022-12-02T22:04:43.319Z,27.37
2022-12-02T22:07:29.040Z,27.37
2022-12-02T22:09:57.296Z,23.97
2022-12-02T22:12:25.308Z,23.47
2022-12-02T22:14:54.659Z,24.73
2022-12-02T22:17:22.806Z,23.07
2022-12-02T22:19:50.614Z,22.57
2022-12-02T22:22:18.419Z,24.20
2022-12-02T22:24:46.241Z,22.03
2022-12-02T22:27:14.003Z,22.20
2022-12-02T22:29:41.766Z,22.30
2022-12-02T22:32:11.321Z,24.23
2022-12-02T22:34:39.154Z,23.83
2022-12-02T22:37:06.932Z,23.60
2022-12-02T22:39:34.696Z,23.33
2022-12-02T22:42:02.770Z,23.27
2022-12-02T22:44:30.554Z,25.13
2022-12-02T22:46:58.318Z,24.37
2022-12-02T22:49:27.484Z,23.23
2022-12-02T22:51:55.207Z,22.47
2022-12-02T22:54:22.996Z,23.80
2022-12-02T22:56:50.895Z,23.47
2022-12-02T22:59:18.642Z,23.20
2022-12-02T23:01:46.436Z,21.70
2022-12-02T23:04:14.465Z,23.00
2022-12-02T23:06:43.608Z,22.67
2022-12-02T23:09:11.398Z,22.43
2022-12-02T23:11:39.183Z,21.73
2022-12-02T23:14:07.040Z,21.33
2022-12-02T23:16:34.943Z,20.37
2022-12-02T23:19:02.993Z,20.67
2022-12-02T23:21:30.830Z,21.57
2022-12-02T23:23:59.961Z,20.93
2022-12-02T23:26:27.914Z,23.07
2022-12-02T23:28:55.722Z,21.63
2022-12-02T23:31:23.592Z,21.43
2022-12-02T23:33:51.395Z,22.33
2022-12-02T23:36:19.176Z,21.83
2022-12-02T23:38:46.915Z,21.00
2022-12-02T23:41:16.154Z,21.27
2022-12-02T23:43:43.877Z,21.10
2022-12-02T23:46:11.681Z,20.40
2022-12-02T23:48:39.597Z,21.30
2022-12-02T23:51:07.644Z,21.17
2022-12-02T23:53:35.411Z,20.03
2022-12-02T23:56:03.242Z,21.10
2022-12-02T23:58:32.374Z,21.23
